createdAt,value
2024-05-09T15:01:50.384Z,9.00
2024-05-09T15:03:23.106Z,12.80
2024-05-09T15:04:55.598Z,10.20
2024-05-09T15:06:28.068Z,8.80
2024-05-09T15:08:00.418Z,9.00
2024-05-09T15:09:35.942Z,12.60
2024-05-09T15:11:08.464Z,9.60
2024-05-09T15:12:40.911Z,13.00
2024-05-09T15:14:16.202Z,14.40
2024-05-09T15:15:48.763Z,11.00
2024-05-09T15:17:21.341Z,7.20
2024-05-09T15:18:53.855Z,9.80
2024-05-09T15:20:33.215Z,13.40
2024-05-09T15:22:11.897Z,10.60
2024-05-09T15:23:44.165Z,7.60
2024-05-09T15:25:16.564Z,10.80
2024-05-09T15:26:48.966Z,11.80
2024-05-09T15:28:21.550Z,23.20
2024-05-09T15:29:53.964Z,24.80
2024-05-09T15:31:26.379Z,41.60
2024-05-09T15:32:58.856Z,38.80
2024-05-09T15:34:31.432Z,50.00
2024-05-09T15:36:03.945Z,54.00
2024-05-09T15:37:37.020Z,62.60
2024-05-09T15:39:09.422Z,57.80
2024-05-09T15:40:41.928Z,68.20
2024-05-09T15:42:14.387Z,68.80
2024-05-09T15:43:46.941Z,74.25
2024-05-09T15:45:19.220Z,73.75
2024-05-09T15:46:52.316Z,77.75
2024-05-09T15:48:24.940Z,76.25
2024-05-09T15:49:57.289Z,80.50
2024-05-09T15:51:29.670Z,87.25
2024-05-09T15:53:02.046Z,90.25
2024-05-09T15:54:34.363Z,95.50
2024-05-09T15:56:07.061Z,93.75
2024-05-09T15:57:39.303Z,94.25
2024-05-09T15:59:11.701Z,100.00
2024-05-09T16:00:45.618Z,102.25
2024-05-09T16:02:19.761Z,100.00
2024-05-09T16:03:52.418Z,111.75
2024-05-09T16:05:25.029Z,109.60
2024-05-09T16:06:57.463Z,216.75
2024-05-09T16:08:29.746Z,217.33
2024-05-09T16:10:02.160Z,203.33
2024-05-09T16:11:35.059Z,185.50
2024-05-09T16:13:07.426Z,151.50
2024-05-09T16:14:39.843Z,145.50
2024-05-09T16:16:12.146Z,126.00
2024-05-09T16:17:44.647Z,146.00
2024-05-09T16:19:16.967Z,139.25
2024-05-09T16:20:50.276Z,139.75
2024-05-09T16:22:22.993Z,137.25
2024-05-09T16:23:55.619Z,150.25
2024-05-09T16:25:27.921Z,148.25
2024-05-09T16:27:01.078Z,163.25
2024-05-09T16:28:33.664Z,151.00
2024-05-09T16:30:09.519Z,153.75
2024-05-09T16:31:47.187Z,150.50
2024-05-09T16:33:24.089Z,143.25
2024-05-09T16:34:56.603Z,149.75
2024-05-09T16:36:29.322Z,155.25
2024-05-09T16:38:04.515Z,137.00
2024-05-09T16:39:37.069Z,165.75
2024-05-09T16:41:09.887Z,150.75
2024-05-09T16:42:42.340Z,153.50
2024-05-09T16:44:14.644Z,155.25
2024-05-09T16:45:46.974Z,140.25
2024-05-09T16:47:19.298Z,150.50
2024-05-09T16:48:51.833Z,133.75
2024-05-09T16:50:29.448Z,157.75
2024-05-09T16:52:05.840Z,160.00
2024-05-09T16:53:39.226Z,145.75
2024-05-09T16:55:11.863Z,161.25
2024-05-09T16:56:44.140Z,148.50
2024-05-09T16:58:16.693Z,147.25
2024-05-09T16:59:49.436Z,136.00
2024-05-09T17:01:21.984Z,136.50
2024-05-09T17:02:57.462Z,148.00
2024-05-09T17:04:30.092Z,137.00
2024-05-09T17:06:05.938Z,146.25
2024-05-09T17:07:38.446Z,146.00
2024-05-09T17:09:12.069Z,134.25
2024-05-09T17:10:51.195Z,152.25
2024-05-09T17:12:25.679Z,142.50
2024-05-09T17:13:58.172Z,144.50
2024-05-09T17:15:30.651Z,147.25
2024-05-09T17:17:03.030Z,153.50
2024-05-09T17:18:35.385Z,131.25
2024-05-09T17:20:18.728Z,132.75
2024-05-09T17:21:58.354Z,125.50
2024-05-09T17:23:34.324Z,138.50
2024-05-09T17:25:07.420Z,128.25
2024-05-09T17:26:39.805Z,113.00
2024-05-09T17:28:12.542Z,126.80
2024-05-09T17:29:45.047Z,123.60
2024-05-09T17:31:17.552Z,121.40
2024-05-09T17:32:50.607Z,93.80
2024-05-09T17:34:23.464Z,127.60
2024-05-09T17:35:55.982Z,116.40
2024-05-09T17:37:28.350Z,125.20
2024-05-09T17:39:00.621Z,111.80
2024-05-09T17:40:36.070Z,114.00
2024-05-09T17:42:10.117Z,119.20
2024-05-09T17:43:42.601Z,95.50
2024-05-09T17:45:15.503Z,84.75
2024-05-09T17:46:48.497Z,98.00
2024-05-09T17:48:20.935Z,90.50
2024-05-09T17:49:53.573Z,111.00
2024-05-09T17:51:25.979Z,99.25
2024-05-09T17:52:58.422Z,87.25
2024-05-09T17:54:30.885Z,120.00
2024-05-09T17:56:03.346Z,93.50
2024-05-09T17:57:35.628Z,118.40
2024-05-09T17:59:10.770Z,111.20
2024-05-09T18:00:43.963Z,95.50
2024-05-09T18:02:16.697Z,115.40
2024-05-09T18:03:50.365Z,106.25
2024-05-09T18:05:23.216Z,88.60
2024-05-09T18:06:55.672Z,100.60
2024-05-09T18:08:28.007Z,101.50
2024-05-09T18:10:00.326Z,109.40
2024-05-09T18:11:32.974Z,93.00
2024-05-09T18:13:06.214Z,97.50
2024-05-09T18:14:38.978Z,103.75
2024-05-09T18:16:11.373Z,107.60
2024-05-09T18:17:44.115Z,121.00
2024-05-09T18:19:16.636Z,99.00
2024-05-09T18:20:49.225Z,117.80
2024-05-09T18:22:23.596Z,104.00
2024-05-09T18:23:58.119Z,106.50
2024-05-09T18:25:31.863Z,98.75
2024-05-09T18:27:04.342Z,117.40
2024-05-09T18:28:36.681Z,99.50
2024-05-09T18:30:23.793Z,102.25
2024-05-09T18:32:00.538Z,104.25
2024-05-09T18:33:33.201Z,93.75
2024-05-09T18:35:06.044Z,106.25
2024-05-09T18:36:41.339Z,103.50
2024-05-09T18:38:13.638Z,98.50
2024-05-09T18:39:46.058Z,108.00
2024-05-09T18:41:20.708Z,111.25
2024-05-09T18:42:55.172Z,97.00
2024-05-09T18:44:27.782Z,112.25
2024-05-09T18:46:00.173Z,115.60
2024-05-09T18:47:32.667Z,100.50
2024-05-09T18:49:05.363Z,106.75
2024-05-09T18:50:40.223Z,108.25
2024-05-09T18:52:13.823Z,107.60
2024-05-09T18:53:46.588Z,112.60
2024-05-09T18:55:19.083Z,104.50
2024-05-09T18:56:51.403Z,112.60
2024-05-09T18:58:23.941Z,113.80
2024-05-09T18:59:56.521Z,115.20
2024-05-09T19:01:29.081Z,103.40
2024-05-09T19:03:01.864Z,104.00
2024-05-09T19:04:34.576Z,102.50
2024-05-09T19:06:07.490Z,99.25
2024-05-09T19:07:39.856Z,118.00
2024-05-09T19:09:12.187Z,123.60
2024-05-09T19:11:04.996Z,125.60
2024-05-09T19:12:37.522Z,114.80
2024-05-09T19:14:10.266Z,99.50
2024-05-09T19:15:43.562Z,71.00
2024-05-09T19:17:16.715Z,71.25
2024-05-09T19:18:51.714Z,69.00
2024-05-09T19:20:28.718Z,73.00
2024-05-09T19:22:08.868Z,78.25
2024-05-09T19:23:47.103Z,65.00
2024-05-09T19:25:24.226Z,75.00
2024-05-09T19:26:57.355Z,80.25
2024-05-09T19:28:29.803Z,78.00
2024-05-09T19:30:03.142Z,82.25
2024-05-09T19:31:36.500Z,81.50
2024-05-09T19:33:10.328Z,77.25
2024-05-09T19:34:43.607Z,85.75
2024-05-09T19:36:16.039Z,87.25
2024-05-09T19:37:51.632Z,90.00
2024-05-09T19:39:24.256Z,80.50
2024-05-09T19:40:56.659Z,110.60
2024-05-09T19:42:30.235Z,103.75
2024-05-09T19:44:02.853Z,110.25
2024-05-09T19:45:36.256Z,90.50
2024-05-09T19:47:08.975Z,98.00
2024-05-09T19:48:41.591Z,101.75
2024-05-09T19:50:19.722Z,119.40
2024-05-09T19:51:58.932Z,106.75
2024-05-09T19:53:31.398Z,104.00
2024-05-09T19:55:03.906Z,106.25
2024-05-09T19:56:36.207Z,103.00
2024-05-09T19:58:09.664Z,98.25
2024-05-09T19:59:44.148Z,110.00
2024-05-09T20:01:17.952Z,104.00
2024-05-09T20:02:50.740Z,106.60
2024-05-09T20:04:23.621Z,116.20
2024-05-09T20:05:56.090Z,112.20
2024-05-09T20:07:28.515Z,125.00
2024-05-09T20:09:00.936Z,113.60
2024-05-09T20:10:35.505Z,119.80
2024-05-09T20:12:09.730Z,115.00
2024-05-09T20:13:42.065Z,126.00
2024-05-09T20:15:14.547Z,118.20
2024-05-09T20:16:46.924Z,129.25
2024-05-09T20:18:19.256Z,129.40
2024-05-09T20:19:51.967Z,124.75
2024-05-09T20:21:24.972Z,122.75
2024-05-09T20:22:57.436Z,130.50
2024-05-09T20:24:29.812Z,128.25
2024-05-09T20:26:02.375Z,134.25
2024-05-09T20:27:34.810Z,145.75
2024-05-09T20:29:07.232Z,127.00
2024-05-09T20:30:39.999Z,137.50
2024-05-09T20:32:12.467Z,135.00
2024-05-09T20:33:44.946Z,134.75
2024-05-09T20:35:17.550Z,136.25
2024-05-09T20:36:49.918Z,131.75
2024-05-09T20:38:22.456Z,138.00
2024-05-09T20:39:55.014Z,155.75
2024-05-09T20:41:28.040Z,147.00
2024-05-09T20:43:00.484Z,159.25
2024-05-09T20:44:33.006Z,151.25
2024-05-09T20:46:05.912Z,151.25
2024-05-09T20:47:38.988Z,144.00
2024-05-09T20:49:12.069Z,147.75
2024-05-09T20:50:44.733Z,140.50
2024-05-09T20:52:17.623Z,149.25
2024-05-09T20:53:50.131Z,161.00
2024-05-09T20:55:22.609Z,160.00
2024-05-09T20:56:55.112Z,153.50
2024-05-09T20:58:28.145Z,161.75
2024-05-09T21:00:00.796Z,167.00
2024-05-09T21:01:33.065Z,161.75
2024-05-09T21:03:06.811Z,166.25
2024-05-09T21:04:40.078Z,174.75
2024-05-09T21:06:12.542Z,153.75
2024-05-09T21:07:44.931Z,166.25
2024-05-09T21:09:17.409Z,158.50
2024-05-09T21:10:49.855Z,146.00
2024-05-09T21:12:22.408Z,172.25
2024-05-09T21:13:54.765Z,152.25
2024-05-09T21:15:27.070Z,153.50
2024-05-09T21:16:59.616Z,158.25
2024-05-09T21:18:32.597Z,171.50
2024-05-09T21:20:11.397Z,180.75
2024-05-09T21:21:46.912Z,166.50
2024-05-09T21:23:19.191Z,209.00
2024-05-09T21:24:51.532Z,160.00
2024-05-09T21:26:25.168Z,155.75
2024-05-09T21:27:58.038Z,155.00
2024-05-09T21:29:30.567Z,137.00
2024-05-09T21:31:03.082Z,148.25
2024-05-09T21:32:35.424Z,135.50
2024-05-09T21:34:07.863Z,148.50
2024-05-09T21:35:41.256Z,141.75
2024-05-09T21:37:13.864Z,125.75
2024-05-09T21:38:46.472Z,145.50
2024-05-09T21:40:27.204Z,128.25
2024-05-09T21:42:06.342Z,140.75
2024-05-09T21:43:39.040Z,119.75
2024-05-09T21:45:11.365Z,128.00
2024-05-09T21:46:44.613Z,121.25
2024-05-09T21:48:17.058Z,131.25
2024-05-09T21:49:49.654Z,134.00
2024-05-09T21:51:22.070Z,122.20
2024-05-09T21:52:54.550Z,119.75
2024-05-09T21:54:27.113Z,126.60
2024-05-09T21:55:59.465Z,117.40
2024-05-09T21:57:31.861Z,113.00
2024-05-09T21:59:04.509Z,113.60
2024-05-09T22:00:39.421Z,109.20
2024-05-09T22:02:12.764Z,116.00
2024-05-09T22:03:45.444Z,98.80
2024-05-09T22:05:18.128Z,117.50
2024-05-09T22:06:50.560Z,111.60
2024-05-09T22:08:23.051Z,111.80
2024-05-09T22:09:55.430Z,97.25
2024-05-09T22:11:27.895Z,110.00
2024-05-09T22:13:00.319Z,95.00
2024-05-09T22:14:33.195Z,97.00
2024-05-09T22:16:06.022Z,98.50
2024-05-09T22:17:41.312Z,102.25
2024-05-09T22:19:13.691Z,84.00
2024-05-09T22:20:46.883Z,97.25
2024-05-09T22:22:20.690Z,86.75
2024-05-09T22:23:53.236Z,88.25
2024-05-09T22:25:28.041Z,82.75
2024-05-09T22:27:02.029Z,82.25
2024-05-09T22:28:34.287Z,80.00
2024-05-09T22:30:11.641Z,77.00
2024-05-09T22:31:46.917Z,82.00
2024-05-09T22:33:19.724Z,76.75
2024-05-09T22:34:52.053Z,75.75
